Elmadag, Turkey
Current Conditions -  °F | °C
As of 2:50 AM on Saturday 29 Nov 2014 (Local Time) from LTAC Reporting Station
Clear Clear  
Wind Chill: 28°   Ceiling: Unl
Heat Index: 28°   Visibility: 5mi
Dew Point: 27°   Wind: 1mph
Humidity: 93%   Direction: NA
Pressure: 30.3"   Gusts: NA
Location:  39.93°N, 33.25°E
Report Text: LTAC 282350Z VRB01KT 8000 NSC M02/M03 Q1026 NOSIG
Loading
Personal Weather Stations






























Interactive Weather Map New forecast layout! Learn more

10-Day Weather Forecast

Advertisements
Track Severe Weather on mobile